Time;durP1;ratioP1;P1;durP2;ratioP2;P2;SDS_P1;SDS_P2;PMS_P1;PMS_P2;Temp;Humidity;BMP_temperature;BMP_pressure;BME280_temperature;BME280_humidity;BME280_pressure;Samples;Min_cycle;Max_cycle;Signal;HPM_P1;HPM_P2
2023/05/05 00:01:43;;;;;;;2.88;2.10;;;;;;;21.38;50.56;100685.00;5071498;28;20475;-64
2023/05/05 00:04:12;;;;;;;3.55;2.20;;;;;;;21.37;50.68;100691.44;5071272;28;20049;-64
2023/05/05 00:06:40;;;;;;;3.15;2.22;;;;;;;21.35;50.77;100679.91;5071251;28;20472;-64
2023/05/05 00:09:08;;;;;;;3.63;2.33;;;;;;;21.34;50.81;100683.63;5071492;28;20072;-65
2023/05/05 00:11:36;;;;;;;3.50;2.30;;;;;;;21.33;50.38;100684.63;5071485;28;20127;-63
2023/05/05 00:14:05;;;;;;;3.72;2.10;;;;;;;21.32;50.68;100680.19;5071235;28;20414;-65
2023/05/05 00:16:34;;;;;;;3.90;2.13;;;;;;;21.31;50.57;100685.75;5071200;28;20390;-64
2023/05/05 00:19:03;;;;;;;3.40;1.90;;;;;;;21.30;50.58;100684.06;5070934;28;20507;-63
2023/05/05 00:21:31;;;;;;;3.15;2.05;;;;;;;21.29;50.45;100687.78;5071277;28;20041;-64
2023/05/05 00:23:59;;;;;;;3.55;2.30;;;;;;;21.27;50.34;100684.38;5071213;28;20051;-64
2023/05/05 00:26:27;;;;;;;3.17;2.00;;;;;;;21.26;50.69;100686.22;5075088;28;20080;-64
2023/05/05 00:28:56;;;;;;;3.58;2.30;;;;;;;21.25;50.37;100687.22;5074889;28;20102;-65
2023/05/05 00:31:24;;;;;;;3.75;2.20;;;;;;;21.24;50.64;100684.66;5074984;28;20151;-65
2023/05/05 00:33:56;;;;;;;3.63;2.40;;;;;;;21.23;50.44;100682.91;5074984;28;20041;-64
2023/05/05 00:36:24;;;;;;;3.90;2.10;;;;;;;21.22;50.33;100673.06;5074848;28;20484;-64
2023/05/05 00:38:52;;;;;;;4.18;2.03;;;;;;;21.20;50.29;100673.22;5074731;28;20071;-64
2023/05/05 00:41:21;;;;;;;3.47;2.20;;;;;;;21.20;50.69;100672.38;5074661;28;20048;-65
2023/05/05 00:43:49;;;;;;;3.38;2.20;;;;;;;21.19;50.60;100676.09;5074757;28;20040;-64
2023/05/05 00:46:24;;;;;;;3.22;2.00;;;;;;;21.17;50.50;100672.69;5076325;28;20478;-64
2023/05/05 00:48:52;;;;;;;3.63;2.10;;;;;;;21.15;50.71;100670.97;5074568;28;20437;-64
2023/05/05 00:51:24;;;;;;;3.13;2.10;;;;;;;21.13;50.28;100669.41;5074412;28;20512;-64
2023/05/05 00:53:52;;;;;;;2.83;1.70;;;;;;;21.11;50.54;100665.97;5074552;28;20052;-64
2023/05/05 00:56:23;;;;;;;2.85;2.10;;;;;;;21.11;50.32;100671.41;5074400;28;20048;-65
2023/05/05 00:58:52;;;;;;;3.25;2.20;;;;;;;21.10;50.29;100670.56;5074620;28;20052;-63
2023/05/05 01:01:20;;;;;;;3.22;1.92;;;;;;;21.08;50.33;100664.44;5074424;28;20056;-64
2023/05/05 01:03:48;;;;;;;3.58;2.10;;;;;;;21.07;50.63;100668.16;5074346;28;20563;-65
2023/05/05 01:06:37;;;;;;;2.90;1.85;;;;;;;21.06;50.67;100668.31;5074136;28;20123;-65
2023/05/05 01:09:14;;;;;;;3.05;2.08;;;;;;;21.04;50.45;100671.19;5074106;28;20109;-65
2023/05/05 01:11:51;;;;;;;3.42;1.95;;;;;;;21.03;50.46;100666.72;5074325;28;20075;-66
2023/05/05 01:14:24;;;;;;;3.40;2.03;;;;;;;21.02;50.35;100669.59;5074189;28;20132;-65
2023/05/05 01:16:59;;;;;;;3.08;2.20;;;;;;;21.00;50.22;100664.31;5074053;28;20045;-65
2023/05/05 01:19:47;;;;;;;3.50;2.17;;;;;;;20.99;50.48;100659.91;5073920;28;20052;-63
2023/05/05 01:22:20;;;;;;;3.42;1.92;;;;;;;20.98;50.42;100655.50;5074249;28;20072;-64
2023/05/05 01:25:05;;;;;;;4.30;2.00;;;;;;;20.98;50.39;100652.78;5074033;28;20049;-64
2023/05/05 01:27:55;;;;;;;3.60;2.10;;;;;;;20.96;50.42;100654.78;5073955;28;20048;-65
2023/05/05 01:30:46;;;;;;;2.78;2.00;;;;;;;20.94;50.40;100656.81;5074068;28;20041;-64
2023/05/05 01:33:23;;;;;;;2.53;1.73;;;;;;;20.93;50.46;100652.34;5073872;28;20047;-64
2023/05/05 01:35:55;;;;;;;3.00;2.00;;;;;;;20.93;50.31;100654.22;5073438;28;20135;-64
2023/05/05 01:38:26;;;;;;;;;;;;;;;20.91;50.26;100658.94;5074144;28;20063;-64
2023/05/05 01:41:02;;;;;;;3.00;2.00;;;;;;;20.90;50.07;100659.94;5073719;28;19974;-64
2023/05/05 01:43:34;;;;;;;3.22;2.20;;;;;;;20.89;50.47;100653.69;5073782;28;20079;-65
2023/05/05 01:46:04;;;;;;;2.92;1.90;;;;;;;20.86;50.30;100654.84;5073582;28;20382;-64
2023/05/05 01:48:35;;;;;;;2.80;1.98;;;;;;;20.85;50.19;100652.28;5073491;28;20080;-64
2023/05/05 01:51:06;;;;;;;3.63;1.92;;;;;;;20.85;50.48;100657.69;5073627;28;20246;-64
2023/05/05 01:53:36;;;;;;;3.30;2.00;;;;;;;20.84;50.04;100661.38;5073371;28;20444;-64
2023/05/05 01:56:05;;;;;;;2.78;1.90;;;;;;;20.82;50.05;100657.97;5072254;28;20056;-65
2023/05/05 01:58:34;;;;;;;3.00;1.80;;;;;;;20.81;50.46;100657.13;5073309;28;20409;-64
2023/05/05 02:01:04;;;;;;;3.70;2.20;;;;;;;20.81;50.12;100650.84;5073203;28;20131;-64
2023/05/05 02:03:36;;;;;;;2.97;1.90;;;;;;;20.79;50.43;100647.44;5073169;28;20106;-64
2023/05/05 02:06:07;;;;;;;2.60;1.60;;;;;;;20.78;49.97;100652.00;5073043;28;20084;-64
2023/05/05 02:08:37;;;;;;;3.30;2.00;;;;;;;20.79;49.98;100647.44;5073264;28;20127;-64
2023/05/05 02:11:09;;;;;;;3.55;2.10;;;;;;;20.76;50.23;100647.75;5073200;28;20105;-65
2023/05/05 02:13:38;;;;;;;3.35;2.13;;;;;;;20.74;49.92;100650.56;5073184;28;20052;-64
2023/05/05 02:16:07;;;;;;;3.92;2.00;;;;;;;20.73;49.97;100648.03;5072933;28;20084;-65
2023/05/05 02:18:37;;;;;;;2.63;1.60;;;;;;;20.73;50.39;100645.31;5073050;28;20048;-64
2023/05/05 02:21:07;;;;;;;3.20;1.88;;;;;;;20.72;49.89;100646.31;5072779;28;20052;-64
2023/05/05 02:23:36;;;;;;;3.70;1.73;;;;;;;20.70;50.03;100646.47;5072853;28;20131;-64
2023/05/05 02:26:07;;;;;;;3.03;1.80;;;;;;;20.69;50.20;100644.75;5072782;28;20048;-64
2023/05/05 02:28:40;;;;;;;2.60;1.75;;;;;;;20.69;49.96;100643.91;5072580;28;20048;-65
2023/05/05 02:31:12;;;;;;;3.08;1.85;;;;;;;20.68;50.19;100650.34;5072917;28;20044;-65
2023/05/05 02:33:43;;;;;;;3.47;1.90;;;;;;;20.66;50.02;100644.22;5072751;28;20048;-65
2023/05/05 02:36:16;;;;;;;2.95;1.73;;;;;;;20.66;50.14;100652.34;5072639;28;20051;-65
2023/05/05 02:38:48;;;;;;;3.20;1.98;;;;;;;20.64;50.08;100649.75;5072550;28;20052;-64
2023/05/05 02:41:20;;;;;;;3.58;1.80;;;;;;;20.64;49.88;100648.91;5072317;28;20056;-65
2023/05/05 02:43:51;;;;;;;3.08;1.80;;;;;;;20.62;49.77;100650.91;5072300;28;20040;-64
2023/05/05 02:46:19;;;;;;;3.53;1.90;;;;;;;20.61;49.81;100649.22;5072137;28;20044;-64
2023/05/05 02:48:49;;;;;;;2.90;1.80;;;;;;;20.60;50.08;100648.34;5071716;28;20047;-64
2023/05/05 02:51:17;;;;;;;2.70;1.83;;;;;;;20.58;49.93;100645.81;5072206;28;20140;-64
2023/05/05 02:53:45;;;;;;;3.65;1.95;;;;;;;20.58;50.18;100645.81;5072353;28;20047;-64
2023/05/05 02:56:26;;;;;;;3.80;1.95;;;;;;;20.56;49.99;100650.50;5072299;28;20053;-65
2023/05/05 02:59:04;;;;;;;2.92;2.08;;;;;;;20.56;50.11;100657.78;5072086;28;20044;-65
2023/05/05 03:01:43;;;;;;;2.92;1.70;;;;;;;20.55;50.09;100653.34;5072032;28;20054;-65
2023/05/05 03:04:16;;;;;;;3.20;1.90;;;;;;;20.54;49.75;100649.78;5072207;28;20432;-65
2023/05/05 03:06:48;;;;;;;3.20;2.00;;;;;;;20.53;50.13;100647.22;5071915;28;20551;-65
2023/05/05 03:09:22;;;;;;;3.40;1.90;;;;;;;20.51;49.67;100652.81;5072318;28;20049;-63
2023/05/05 03:11:56;;;;;;;3.00;1.95;;;;;;;20.50;50.04;100648.38;5071944;28;20056;-64
2023/05/05 03:14:28;;;;;;;4.13;2.20;;;;;;;20.50;49.60;100652.94;5071723;28;20075;-63
2023/05/05 03:17:01;;;;;;;3.20;1.90;;;;;;;20.48;50.07;100649.53;5072106;28;20122;-64
2023/05/05 03:19:32;;;;;;;3.08;2.00;;;;;;;20.47;49.95;100653.25;5071929;28;20048;-65
2023/05/05 03:22:00;;;;;;;3.50;2.08;;;;;;;20.46;49.67;100649.69;5071660;28;20056;-64
2023/05/05 03:24:28;;;;;;;2.83;1.98;;;;;;;20.45;49.66;100645.25;5072164;28;20482;-65
2023/05/05 03:26:57;;;;;;;3.08;2.05;;;;;;;20.44;49.97;100646.25;5071701;28;20059;-64
2023/05/05 03:29:25;;;;;;;3.30;1.83;;;;;;;20.42;50.03;100650.94;5071677;28;20051;-64
2023/05/05 03:31:56;;;;;;;3.53;1.95;;;;;;;20.42;49.82;100650.94;5071866;28;20398;-64
2023/05/05 03:34:24;;;;;;;3.10;2.08;;;;;;;20.40;49.75;100642.09;5071755;28;20052;-64
2023/05/05 03:36:54;;;;;;;3.35;1.90;;;;;;;20.39;49.90;100648.53;5071626;28;20041;-64
2023/05/05 03:39:22;;;;;;;3.55;2.00;;;;;;;20.39;49.94;100651.22;5071540;28;20068;-64
2023/05/05 03:41:50;;;;;;;2.97;2.00;;;;;;;20.38;49.71;100649.53;5071388;28;20674;-64
2023/05/05 03:44:19;;;;;;;3.50;2.13;;;;;;;20.37;49.66;100647.81;5071543;28;20048;-64
2023/05/05 03:46:47;;;;;;;2.95;1.90;;;;;;;20.36;49.58;100651.50;5071683;28;20040;-64
2023/05/05 03:49:15;;;;;;;3.28;2.05;;;;;;;20.37;49.84;100652.38;5071514;28;20094;-64
2023/05/05 03:51:43;;;;;;;3.15;1.90;;;;;;;20.35;49.95;100648.94;5071440;28;20049;-64
2023/05/05 03:54:13;;;;;;;2.92;1.90;;;;;;;20.34;49.92;100652.66;5071232;28;20508;-65
2023/05/05 03:56:41;;;;;;;3.50;2.17;;;;;;;20.33;49.64;100659.94;5071610;28;20041;-66
2023/05/05 03:59:09;;;;;;;3.72;2.03;;;;;;;20.32;49.52;100666.34;5071489;28;20059;-64
2023/05/05 04:01:37;;;;;;;3.72;1.90;;;;;;;20.31;49.56;100664.66;5075438;28;20048;-65
2023/05/05 04:04:05;;;;;;;2.75;1.90;;;;;;;20.30;49.46;100665.66;5075487;28;20071;-64
2023/05/05 04:06:33;;;;;;;3.00;1.95;;;;;;;20.29;49.89;100669.34;5075155;28;20048;-64
2023/05/05 04:09:02;;;;;;;2.70;1.88;;;;;;;20.29;49.52;100674.78;5075343;28;20139;-64
2023/05/05 04:11:31;;;;;;;3.80;1.83;;;;;;;20.28;49.80;100667.66;5075400;28;20076;-64
2023/05/05 04:13:59;;;;;;;3.50;2.20;;;;;;;20.28;49.86;100683.91;5075402;28;20455;-65
2023/05/05 04:16:30;;;;;;;3.60;2.22;;;;;;;20.25;49.57;100668.78;5081285;28;20071;-64
2023/05/05 04:18:59;;;;;;;3.75;2.13;;;;;;;20.26;49.66;100672.34;5095556;28;20047;-63
2023/05/05 04:21:27;;;;;;;3.17;2.00;;;;;;;20.26;49.55;100672.34;5095227;28;20067;-63
2023/05/05 04:23:56;;;;;;;3.95;2.00;;;;;;;20.24;49.91;100669.78;5095269;28;20071;-63
2023/05/05 04:26:24;;;;;;;3.50;2.20;;;;;;;20.24;49.73;100664.34;5095382;28;20044;-65
2023/05/05 04:28:56;;;;;;;2.97;1.80;;;;;;;20.22;49.71;100666.38;5095308;28;20429;-64
2023/05/05 04:31:24;;;;;;;3.05;2.00;;;;;;;20.22;49.75;100668.22;5095191;28;20067;-64
2023/05/05 04:33:53;;;;;;;3.20;2.00;;;;;;;20.22;49.61;100676.34;5095727;28;20056;-64
2023/05/05 04:36:21;;;;;;;2.85;2.00;;;;;;;20.20;49.91;100675.63;5095412;28;20040;-64
2023/05/05 04:38:50;;;;;;;3.63;1.95;;;;;;;20.20;49.53;100681.06;5095245;28;20416;-63
2023/05/05 04:41:18;;;;;;;2.95;1.90;;;;;;;20.20;49.62;100681.06;5094838;28;20044;-67
2023/05/05 04:43:46;;;;;;;3.42;2.05;;;;;;;20.19;49.53;100682.06;5094783;28;20143;-66
2023/05/05 04:46:15;;;;;;;3.17;1.92;;;;;;;20.17;49.49;100686.75;5094788;28;20058;-66
2023/05/05 04:48:44;;;;;;;3.70;2.20;;;;;;;20.17;49.91;100686.75;5094866;28;20126;-68
2023/05/05 04:51:12;;;;;;;4.68;2.10;;;;;;;20.16;49.83;100687.75;5094831;28;20059;-64
2023/05/05 04:53:40;;;;;;;3.55;2.17;;;;;;;20.16;49.77;100694.00;5094640;28;20044;-64
2023/05/05 04:56:08;;;;;;;3.28;2.08;;;;;;;20.16;49.74;100693.16;5094620;28;20042;-63
2023/05/05 04:58:37;;;;;;;3.17;2.05;;;;;;;20.15;49.81;100691.44;5094644;28;20516;-64
2023/05/05 05:01:05;;;;;;;3.45;1.98;;;;;;;20.15;49.67;100699.56;5091537;28;20062;-65
2023/05/05 05:03:35;;;;;;;3.50;2.10;;;;;;;20.15;49.38;100702.28;5093985;28;20044;-63
2023/05/05 05:06:03;;;;;;;5.05;2.00;;;;;;;20.12;49.74;100699.88;5094453;28;20082;-64
2023/05/05 05:08:32;;;;;;;3.70;2.25;;;;;;;20.13;49.83;100709.69;5094555;28;20044;-66
2023/05/05 05:11:00;;;;;;;3.33;2.10;;;;;;;20.13;49.50;100704.28;5093681;28;20048;-64
2023/05/05 05:13:28;;;;;;;3.65;2.28;;;;;;;20.13;49.79;100707.00;5093754;28;20040;-64
2023/05/05 05:15:56;;;;;;;4.10;2.30;;;;;;;20.11;49.46;100709.00;5093832;28;20044;-64
2023/05/05 05:18:25;;;;;;;3.75;2.28;;;;;;;20.11;49.46;100711.69;5093413;28;20048;-64
2023/05/05 05:20:55;;;;;;;3.60;2.22;;;;;;;20.09;49.62;100701.03;5092467;28;20498;-63
2023/05/05 05:23:23;;;;;;;4.20;2.17;;;;;;;20.11;49.62;100709.00;5094001;28;20064;-64
2023/05/05 05:25:51;;;;;;;3.20;2.15;;;;;;;20.10;49.84;100705.44;5093978;28;20044;-64
2023/05/05 05:28:20;;;;;;;3.80;2.22;;;;;;;20.10;49.65;100705.44;5093879;28;20066;-65
2023/05/05 05:30:48;;;;;;;4.13;2.22;;;;;;;20.09;49.74;100708.28;5093702;28;20055;-65
2023/05/05 05:33:16;;;;;;;3.60;2.25;;;;;;;20.09;49.38;100708.28;5093822;28;20493;-64
2023/05/05 05:35:44;;;;;;;4.72;2.40;;;;;;;20.09;49.72;100711.00;5093649;28;20135;-63
2023/05/05 05:38:14;;;;;;;3.97;2.25;;;;;;;20.09;49.37;100719.13;5093779;28;20123;-64
2023/05/05 05:40:42;;;;;;;3.75;2.10;;;;;;;20.09;49.81;100725.41;5093440;28;20048;-64
2023/05/05 05:43:10;;;;;;;3.60;2.05;;;;;;;20.09;49.40;100724.53;5093558;28;20752;-65
2023/05/05 05:45:38;;;;;;;3.83;2.30;;;;;;;20.07;49.90;100721.94;5095288;28;20052;-64
2023/05/05 05:48:08;;;;;;;3.30;2.20;;;;;;;20.09;49.60;100719.13;5093880;28;20048;-64
2023/05/05 05:50:36;;;;;;;3.42;2.13;;;;;;;20.09;49.68;100724.53;5093464;28;20132;-64
2023/05/05 05:53:04;;;;;;;3.00;2.00;;;;;;;20.09;49.70;100730.81;5093253;28;20047;-65
2023/05/05 05:55:34;;;;;;;4.88;2.40;;;;;;;20.08;49.85;100729.09;5092999;28;20461;-65
2023/05/05 05:58:02;;;;;;;3.60;2.20;;;;;;;20.08;49.70;100728.25;5093444;28;20081;-63
2023/05/05 06:00:31;;;;;;;3.45;2.03;;;;;;;20.09;49.68;100725.41;5093391;28;20135;-67
2023/05/05 06:02:59;;;;;;;4.00;2.13;;;;;;;20.09;49.88;100725.41;5092898;28;20163;-64
2023/05/05 06:05:27;;;;;;;4.43;2.30;;;;;;;20.09;49.79;100724.53;5092319;28;20048;-64
2023/05/05 06:07:55;;;;;;;3.83;2.28;;;;;;;20.09;49.99;100724.53;5093242;28;20047;-64
2023/05/05 06:10:24;;;;;;;3.33;2.10;;;;;;;20.09;50.06;100724.53;5093407;28;20047;-65
2023/05/05 06:12:56;;;;;;;4.07;2.20;;;;;;;20.09;49.74;100729.94;5093355;28;20044;-65
2023/05/05 06:15:25;;;;;;;4.53;2.30;;;;;;;20.08;49.58;100733.66;5092953;28;20542;-65
2023/05/05 06:17:53;;;;;;;4.88;2.63;;;;;;;20.09;49.68;100735.38;5092884;28;20066;-65
2023/05/05 06:20:21;;;;;;;3.80;2.50;;;;;;;20.08;50.04;100739.94;5092914;28;20048;-65
2023/05/05 06:22:50;;;;;;;4.95;2.22;;;;;;;20.08;50.15;100730.94;5091527;28;20055;-65
2023/05/05 06:25:18;;;;;;;3.50;2.10;;;;;;;20.07;49.82;100731.91;5092827;28;20051;-65
2023/05/05 06:27:46;;;;;;;3.45;2.00;;;;;;;20.08;49.64;100722.84;5092943;28;20044;-64
2023/05/05 06:30:16;;;;;;;4.28;2.15;;;;;;;20.08;49.90;100722.84;5092664;28;20130;-65
2023/05/05 06:32:44;;;;;;;3.60;2.25;;;;;;;20.08;49.55;100717.41;5092752;28;20048;-63
2023/05/05 06:35:13;;;;;;;4.03;2.30;;;;;;;20.08;50.00;100712.00;5092440;28;20048;-64
2023/05/05 06:37:41;;;;;;;3.50;2.28;;;;;;;20.08;49.96;100704.72;5092733;28;20106;-65
2023/05/05 06:40:10;;;;;;;4.03;2.33;;;;;;;20.08;49.64;100712.00;5092597;28;20048;-64
2023/05/05 06:42:38;;;;;;;3.80;2.30;;;;;;;20.08;49.77;100718.28;5092677;28;20051;-65
2023/05/05 06:45:07;;;;;;;4.35;2.22;;;;;;;20.08;49.66;100715.56;5092575;28;20080;-64
2023/05/05 06:47:37;;;;;;;3.97;2.30;;;;;;;20.08;49.72;100722.84;5092563;28;20073;-65
2023/05/05 06:50:07;;;;;;;4.03;2.40;;;;;;;20.08;49.50;100712.00;5092883;28;20463;-64
2023/05/05 06:52:36;;;;;;;4.30;2.40;;;;;;;20.08;49.48;100717.41;5092728;28;20170;-65
2023/05/05 06:55:04;;;;;;;4.57;2.50;;;;;;;20.06;49.67;100709.41;5093555;28;20055;-65
2023/05/05 06:57:33;;;;;;;3.30;2.03;;;;;;;20.07;49.70;100721.09;5092603;28;20071;-65
2023/05/05 07:00:02;;;;;;;4.25;2.45;;;;;;;20.06;49.37;100708.56;5092335;28;20090;-65
2023/05/05 07:02:30;;;;;;;4.13;2.53;;;;;;;20.06;49.47;100708.56;5092111;28;20113;-65
2023/05/05 07:05:00;;;;;;;4.18;2.10;;;;;;;20.06;49.72;100708.56;5092150;28;20091;-65
2023/05/05 07:07:28;;;;;;;4.43;2.60;;;;;;;20.05;49.30;100707.69;5092291;28;20123;-65
2023/05/05 07:09:56;;;;;;;3.63;2.10;;;;;;;20.07;49.46;100715.69;5092267;28;20044;-65
2023/05/05 07:12:24;;;;;;;4.72;2.30;;;;;;;20.06;49.24;100713.97;5092063;28;20408;-64
2023/05/05 07:14:52;;;;;;;4.97;2.30;;;;;;;20.07;49.45;100713.81;5091997;28;20503;-64
2023/05/05 07:17:23;;;;;;;3.40;2.00;;;;;;;20.08;49.45;100715.56;5092205;28;20072;-64
2023/05/05 07:19:51;;;;;;;5.43;2.38;;;;;;;20.07;49.64;100705.69;5092115;28;20134;-64
2023/05/05 07:22:20;;;;;;;3.75;2.33;;;;;;;20.07;49.36;100707.56;5092196;28;20047;-64
2023/05/05 07:24:52;;;;;;;5.32;2.42;;;;;;;20.07;49.20;100707.56;5091897;28;20062;-64
2023/05/05 07:27:21;;;;;;;3.50;2.00;;;;;;;20.08;49.28;100706.59;5091677;28;20090;-65
2023/05/05 07:29:50;;;;;;;3.80;2.38;;;;;;;20.08;49.09;100704.72;5092126;28;20051;-65
2023/05/05 07:32:18;;;;;;;3.95;2.08;;;;;;;20.10;49.54;100707.28;5091942;28;20044;-65
2023/05/05 07:34:46;;;;;;;3.13;2.10;;;;;;;20.08;49.21;100702.03;5091521;28;20056;-64
2023/05/05 07:37:15;;;;;;;4.05;2.40;;;;;;;20.09;48.94;100705.59;5091700;28;20044;-64
2023/05/05 07:39:46;;;;;;;4.00;2.58;;;;;;;20.10;48.90;100701.88;5091837;28;20068;-65
2023/05/05 07:42:15;;;;;;;4.10;2.43;;;;;;;20.10;49.09;100713.56;5091543;28;20477;-65
2023/05/05 07:44:43;;;;;;;5.43;2.30;;;;;;;20.10;49.07;100710.84;5091745;28;20044;-63
2023/05/05 07:47:12;;;;;;;3.90;2.42;;;;;;;20.10;49.02;100704.59;5091793;28;20051;-64
2023/05/05 07:49:40;;;;;;;3.90;2.30;;;;;;;20.11;49.19;100706.28;5091466;28;20048;-65
2023/05/05 07:52:08;;;;;;;4.10;2.38;;;;;;;20.11;49.05;100703.59;5091656;28;20069;-64
2023/05/05 07:54:37;;;;;;;3.50;2.10;;;;;;;20.12;49.45;100705.28;5091395;28;20101;-65
2023/05/05 07:57:06;;;;;;;3.97;2.15;;;;;;;20.11;49.38;100707.16;5091720;28;20043;-64
2023/05/05 07:59:34;;;;;;;3.92;2.30;;;;;;;20.14;49.30;100706.00;5091565;28;20050;-65
2023/05/05 08:02:03;;;;;;;3.80;2.28;;;;;;;20.14;49.30;100711.41;5091697;28;20078;-65
2023/05/05 08:04:31;;;;;;;4.30;2.22;;;;;;;20.14;49.38;100706.00;5091810;28;20054;-65
2023/05/05 08:06:59;;;;;;;4.65;2.40;;;;;;;20.14;49.30;100706.00;5091412;28;20093;-65
2023/05/05 08:09:28;;;;;;;4.38;2.55;;;;;;;20.16;48.89;100709.41;5091560;28;20050;-64
2023/05/05 08:11:56;;;;;;;3.72;2.00;;;;;;;20.15;49.33;100705.84;5091483;28;20109;-64
2023/05/05 08:14:25;;;;;;;3.40;2.10;;;;;;;20.16;48.89;100701.28;5091284;28;20123;-64
2023/05/05 08:16:54;;;;;;;4.88;2.20;;;;;;;20.17;49.34;100695.75;5091217;28;20082;-64
2023/05/05 08:19:22;;;;;;;3.53;2.20;;;;;;;20.17;49.36;100695.75;5091581;28;20044;-64
2023/05/05 08:21:57;;;;;;;3.53;1.88;;;;;;;20.18;49.00;100692.03;5091190;28;20040;-65
2023/05/05 08:24:29;;;;;;;3.60;2.40;;;;;;;20.20;49.23;100694.59;5091413;28;20415;-64
2023/05/05 08:26:57;;;;;;;4.35;2.30;;;;;;;20.20;49.01;100689.19;5091392;28;20079;-66
2023/05/05 08:29:27;;;;;;;4.25;2.17;;;;;;;20.20;49.26;100695.44;5091365;28;20051;-65
2023/05/05 08:31:55;;;;;;;4.07;2.53;;;;;;;20.21;49.26;100696.31;5091110;28;20051;-64
2023/05/05 08:34:24;;;;;;;4.28;2.28;;;;;;;20.21;48.92;100701.72;5090885;28;20485;-64
2023/05/05 08:36:52;;;;;;;4.88;2.53;;;;;;;20.22;49.13;100695.31;5091067;28;20485;-65
2023/05/05 08:39:20;;;;;;;5.00;2.28;;;;;;;20.23;49.16;100699.72;5091373;28;20451;-64
2023/05/05 08:41:48;;;;;;;4.78;2.80;;;;;;;20.24;49.01;100696.00;5091366;28;20048;-65
2023/05/05 08:44:17;;;;;;;3.55;2.00;;;;;;;20.24;49.32;100698.72;5091097;28;20048;-64
2023/05/05 08:46:46;;;;;;;4.65;2.50;;;;;;;20.26;49.44;100702.13;5093633;28;20056;-65
2023/05/05 08:49:17;;;;;;;3.45;2.03;;;;;;;20.25;49.12;100692.31;5094735;28;20040;-65
2023/05/05 08:51:47;;;;;;;4.15;2.30;;;;;;;20.27;49.48;100698.44;5094779;28;20056;-64
2023/05/05 08:54:19;;;;;;;3.80;2.15;;;;;;;20.28;48.99;100692.03;5094738;28;20050;-64
2023/05/05 08:56:50;;;;;;;3.72;2.17;;;;;;;20.28;49.03;100686.63;5094989;28;20135;-64
2023/05/05 08:59:23;;;;;;;3.78;2.20;;;;;;;20.29;49.05;100683.75;5094398;28;20105;-64
2023/05/05 09:01:53;;;;;;;3.28;2.08;;;;;;;20.30;49.54;100690.03;5094559;28;20595;-65
2023/05/05 09:04:22;;;;;;;3.75;2.33;;;;;;;20.32;49.30;100689.88;5094288;28;20106;-65
2023/05/05 09:06:51;;;;;;;4.25;2.20;;;;;;;20.32;49.51;100685.31;5094404;28;20488;-64
2023/05/05 09:09:20;;;;;;;3.97;2.15;;;;;;;20.32;49.49;100677.19;5094337;28;20135;-64
2023/05/05 09:11:48;;;;;;;3.95;2.20;;;;;;;20.34;49.53;100675.19;5094993;28;20104;-64
2023/05/05 09:14:16;;;;;;;4.28;2.58;;;;;;;20.34;49.31;100675.19;5094481;28;20076;-65
2023/05/05 09:16:44;;;;;;;4.05;2.38;;;;;;;20.36;49.44;100678.59;5094372;28;20516;-64
2023/05/05 09:19:14;;;;;;;5.25;2.70;;;;;;;20.37;49.23;100677.63;5094230;28;20504;-64
2023/05/05 09:21:47;;;;;;;4.45;2.20;;;;;;;20.38;49.11;100676.63;5094322;28;20044;-64
2023/05/05 09:24:15;;;;;;;3.22;2.03;;;;;;;20.39;49.36;100670.19;5094151;28;20055;-64
2023/05/05 09:26:46;;;;;;;3.80;2.13;;;;;;;20.40;49.37;100665.63;5094226;28;20061;-64
2023/05/05 09:29:18;;;;;;;3.80;2.08;;;;;;;20.42;49.50;100660.91;5094056;28;20464;-65
2023/05/05 09:32:04;;;;;;;3.90;2.42;;;;;;;20.43;49.10;100652.66;5094201;28;20045;-65
2023/05/05 09:34:35;;;;;;;5.20;2.30;;;;;;;20.43;49.07;100658.09;5094054;28;20060;-65
2023/05/05 09:37:04;;;;;;;4.15;2.40;;;;;;;20.45;49.01;100661.50;5093747;28;20055;-65
2023/05/05 09:39:33;;;;;;;4.78;2.30;;;;;;;20.46;49.20;100652.41;5093867;28;20048;-63
2023/05/05 09:42:02;;;;;;;4.43;2.40;;;;;;;20.48;49.00;100654.97;5093955;28;20070;-64
2023/05/05 09:44:35;;;;;;;3.83;2.30;;;;;;;20.48;49.04;100650.38;5093762;28;20078;-64
2023/05/05 09:47:03;;;;;;;;;;;;;;;20.49;49.00;100643.97;5094008;28;20448;-66
2023/05/05 09:49:40;;;;;;;3.15;2.30;;;;;;;20.51;49.33;100644.66;5093724;28;19920;-65
2023/05/05 09:52:13;;;;;;;3.83;2.33;;;;;;;20.52;49.40;100646.38;5093751;28;20048;-64
2023/05/05 09:54:41;;;;;;;3.92;2.30;;;;;;;20.54;49.36;100649.78;5093438;28;20138;-64
2023/05/05 09:57:26;;;;;;;4.03;2.35;;;;;;;20.55;49.52;100647.94;5093428;28;20152;-65
2023/05/05 09:59:58;;;;;;;3.22;2.10;;;;;;;20.56;49.57;100642.38;5093398;28;20071;-65
2023/05/05 10:02:32;;;;;;;4.85;2.40;;;;;;;20.57;49.44;100641.38;5093209;28;20052;-65
2023/05/05 10:05:07;;;;;;;3.70;2.40;;;;;;;20.60;49.39;100640.22;5093212;28;20083;-65
2023/05/05 10:07:36;;;;;;;3.85;2.13;;;;;;;20.62;49.39;100640.06;5093233;28;20040;-66
2023/05/05 10:10:06;;;;;;;3.90;2.50;;;;;;;20.63;49.38;100633.66;5093197;28;20332;-65
2023/05/05 10:12:36;;;;;;;3.67;2.42;;;;;;;20.66;49.15;100641.50;5093063;28;20040;-64
2023/05/05 10:15:06;;;;;;;4.20;2.30;;;;;;;20.67;49.07;100633.22;5092972;28;20044;-64
2023/05/05 10:17:37;;;;;;;3.72;2.40;;;;;;;20.70;49.32;100634.78;5092900;28;20489;-65
2023/05/05 10:20:10;;;;;;;3.40;2.00;;;;;;;20.72;49.47;100630.06;5093148;28;20075;-64
2023/05/05 10:22:39;;;;;;;;;;;;;;;20.74;49.51;100630.75;5093353;28;20451;-65
2023/05/05 10:25:11;;;;;;;3.13;1.95;;;;;;;20.76;49.45;100635.03;5092935;28;20333;-65
2023/05/05 10:27:43;;;;;;;4.13;2.22;;;;;;;20.80;49.11;100632.88;5093193;28;20458;-64
2023/05/05 10:30:20;;;;;;;4.07;2.38;;;;;;;20.82;49.31;100634.44;5092869;28;20086;-65
2023/05/05 10:32:51;;;;;;;3.75;2.15;;;;;;;20.85;49.30;100626.03;5092813;28;20491;-65
2023/05/05 10:35:41;;;;;;;3.38;2.25;;;;;;;20.88;49.20;100622.16;5092657;28;20109;-65
2023/05/05 10:38:12;;;;;;;5.72;2.60;;;;;;;20.91;49.39;100616.41;5093118;28;20132;-65
2023/05/05 10:40:44;;;;;;;3.25;2.08;;;;;;;20.94;49.19;100608.00;5092780;28;20413;-64
2023/05/05 10:43:14;;;;;;;4.13;2.22;;;;;;;20.97;49.42;100604.97;5092451;28;20040;-65
2023/05/05 10:45:42;;;;;;;3.63;2.10;;;;;;;20.99;49.73;100605.69;5092515;28;20138;-65
2023/05/05 10:48:20;;;;;;;3.10;2.10;;;;;;;21.03;49.49;100601.66;5092147;28;20044;-66
2023/05/05 10:50:56;;;;;;;3.75;2.15;;;;;;;21.06;49.76;100595.94;5092128;28;20040;-65
2023/05/05 10:53:28;;;;;;;3.20;2.10;;;;;;;21.11;49.50;100592.75;5092006;28;20501;-65
2023/05/05 10:56:05;;;;;;;3.60;2.22;;;;;;;21.14;49.85;100585.19;5092170;28;20044;-65
2023/05/05 10:58:35;;;;;;;3.58;2.13;;;;;;;21.18;49.68;100587.59;5092018;28;20044;-65
2023/05/05 11:01:31;;;;;;;3.58;2.22;;;;;;;21.23;49.86;100579.81;5092355;28;20114;-65
2023/05/05 11:04:19;;;;;;;4.03;2.28;;;;;;;21.27;50.03;100581.28;5092298;28;20060;-65
2023/05/05 11:10:05;;;;;;;3.45;2.20;;;;;;;21.37;50.11;100576.63;5089209;27;20401;-65
2023/05/05 11:13:12;;;;;;;3.42;2.17;;;;;;;21.41;50.29;100572.59;5088918;28;20048;-64
2023/05/05 11:15:40;;;;;;;3.42;2.17;;;;;;;21.46;50.19;100564.84;5089009;28;20048;-65
2023/05/05 11:18:28;;;;;;;3.45;2.15;;;;;;;21.52;50.07;100563.38;5089097;28;20409;-65
2023/05/05 11:21:23;;;;;;;4.05;2.25;;;;;;;21.55;50.23;100561.22;5088590;28;20078;-65
2023/05/05 11:23:51;;;;;;;2.75;2.00;;;;;;;21.60;50.48;100555.31;5064039;28;20097;-65
2023/05/05 11:26:51;;;;;;;3.03;1.98;;;;;;;21.64;50.35;100563.00;5088808;28;20113;-65
2023/05/05 11:29:19;;;;;;;3.75;2.03;;;;;;;21.69;50.28;100552.50;5088826;28;20131;-65
2023/05/05 11:32:12;;;;;;;3.85;1.98;;;;;;;21.75;50.29;100555.63;5088799;28;20052;-65
2023/05/05 11:34:48;;;;;;;2.85;1.95;;;;;;;21.80;50.46;100550.56;5088785;28;20098;-64
2023/05/05 11:37:17;;;;;;;2.97;1.80;;;;;;;21.86;50.28;100552.66;5088696;28;20047;-65
2023/05/05 11:39:59;;;;;;;4.05;2.20;;;;;;;21.90;50.23;100540.44;5088665;28;20048;-65
2023/05/05 11:42:29;;;;;;;3.33;2.00;;;;;;;21.95;50.63;100543.56;5088270;28;20044;-65
2023/05/05 11:44:58;;;;;;;4.07;2.10;;;;;;;22.00;50.35;100535.75;5087959;28;20497;-65
2023/05/05 11:47:31;;;;;;;3.50;2.10;;;;;;;22.05;50.78;100535.31;5088758;28;20044;-65